Gdansk Airport, Poland

7:06 PM CET on November 28, 2014 (GMT +0100)
Rebiechowo | Change Station
CLOSE
Current Station
Airport
Location: Gdansk Airport,
Elevation: 453 ft
Nearby Weather Stations

Elev 453 ft 54.38 °N, 18.47 °E | Updated 6 minutes ago

Overcast
Overcast
27 °F
Feels Like 16 °F
N
12
Wind Variable Wind from ESE

Today
High -- | Low -- °F
--% Chance of Precip.
Yesterday
High -- | Low -- °F
Precip. -- in
7:38 AM 3:29 PM
Waxing Crescent, 42% visible
Pressure 30.36 in
Visibility 6.2 miles
Clouds Overcast 1600 ft
Windchill 16 °F
Dew Point 21 °F
Humidity 80%
Rainfall 0.00 in
Snow Depth Not available.
UV 0 out of 12
Pollen Not available.
Air Quality Not available.
Flu Activity Not available.
METAR EPGD 281800Z 12010KT 9999 OVC016 M03/M06 Q1028

More Conditions Fewer Conditions

Pressure 30.36 in
Visibility 6.2 miles
Clouds Overcast 1600 ft
Windchill 16 °F
Dew Point 21 °F
Humidity 80%
Rainfall 0.00 in
Snow Depth Not available.
UV 0 out of 12
Pollen Not available.
Air Quality Not available.
Flu Activity Not available.
METAR EPGD 281800Z 12010KT 9999 OVC016 M03/M06 Q1028

More Conditions Fewer Conditions

10-Day Weather Forecast

Almanac

Astronomy

Nov. 28, 2014 Rise Set
Actual Time
Civil Twilight
Nautical Twilight
Astronomical Twilight
Moon
Length of Visible Light
Length of Day
Tomorrow will be .
, % of the Moon is Illuminated

Today's Extremes

Country Highs Country Lows

Community

WunderPhotos

Upload Photos

1,774,246 photos uploaded!

WunderBlogs® & News

Nearby

Air Quality

  Air Quality AQ Index Pollutant
Not available.

Snow Depth

Station Depth Elevation

Earthquake Activity

City Distance Mag. Time & Date
Minimum magnitude displayed is 2.5.

Coastal Water Temperatures

Place Temperature

Nearby Weather Stations